WKR weather

Abaco I Walker C Airport
Green Turtle Cay, Bahamas

Public forecast

Using degrees Celsius for public forecast. Weather courtesy of forecast.io.

METAR (pilot weather report)

Closest report is Grand Bahama International Airport, 45.4 nm (84.0 km) SSW. Retrieved 2019/09/22 19:00 UTC (30 minutes ago):

MYGF 221900Z 07018KT 9999 FEW020 BKN250 30/22 A3000

TAF (pilot weather forecast)

Closest forecast is Grand Bahama International Airport, 45.4 nm (84.0 km) SSW. Retrieved 2019/09/22 18:58 UTC (32 minutes ago):

TAF MYGF 221630Z 2218/2318 08022KT 9999 SCT022 BKN250